sensor_id;sensor_type;location;lat;lon;timestamp;temperature;humidity
27741;DHT22;15134;48.768;9.184;2022-09-17T00:01:20;12.40;99.90
27741;DHT22;15134;48.768;9.184;2022-09-17T00:03:51;12.30;99.90
27741;DHT22;15134;48.768;9.184;2022-09-17T00:06:18;12.30;99.90
27741;DHT22;15134;48.768;9.184;2022-09-17T00:08:44;12.30;99.90
27741;DHT22;15134;48.768;9.184;2022-09-17T00:11:18;12.30;99.90
27741;DHT22;15134;48.768;9.184;2022-09-17T00:13:49;12.40;99.90
27741;DHT22;15134;48.768;9.184;2022-09-17T00:16:26;12.30;99.90
27741;DHT22;15134;48.768;9.184;2022-09-17T00:18:52;12.30;99.90
27741;DHT22;15134;48.768;9.184;2022-09-17T00:21:18;12.30;99.90
27741;DHT22;15134;48.768;9.184;2022-09-17T00:23:45;12.30;99.90
27741;DHT22;15134;48.768;9.184;2022-09-17T00:26:11;12.30;99.90
27741;DHT22;15134;48.768;9.184;2022-09-17T00:28:36;12.30;99.90
27741;DHT22;15134;48.768;9.184;2022-09-17T00:31:08;12.30;99.90
27741;DHT22;15134;48.768;9.184;2022-09-17T00:33:34;12.30;99.90
27741;DHT22;15134;48.768;9.184;2022-09-17T00:36:01;12.30;99.90
27741;DHT22;15134;48.768;9.184;2022-09-17T00:38:28;12.30;99.90
27741;DHT22;15134;48.768;9.184;2022-09-17T00:40:54;12.30;99.90
27741;DHT22;15134;48.768;9.184;2022-09-17T00:46:02;12.30;99.90
27741;DHT22;15134;48.768;9.184;2022-09-17T00:48:29;12.30;99.90
27741;DHT22;15134;48.768;9.184;2022-09-17T00:50:55;12.30;99.90
27741;DHT22;15134;48.768;9.184;2022-09-17T00:53:22;12.40;99.90
27741;DHT22;15134;48.768;9.184;2022-09-17T00:55:53;12.40;99.90
27741;DHT22;15134;48.768;9.184;2022-09-17T00:58:22;12.50;99.90
27741;DHT22;15134;48.768;9.184;2022-09-17T01:00:48;12.50;99.90
27741;DHT22;15134;48.768;9.184;2022-09-17T01:03:14;12.50;99.90
27741;DHT22;15134;48.768;9.184;2022-09-17T01:14:16;12.30;99.90
27741;DHT22;15134;48.768;9.184;2022-09-17T01:27:57;12.10;99.90
27741;DHT22;15134;48.768;9.184;2022-09-17T01:39:04;12.00;99.90
27741;DHT22;15134;48.768;9.184;2022-09-17T01:41:50;12.00;99.90
27741;DHT22;15134;48.768;9.184;2022-09-17T01:47:17;12.00;99.90
27741;DHT22;15134;48.768;9.184;2022-09-17T01:49:44;12.00;99.90
27741;DHT22;15134;48.768;9.184;2022-09-17T01:52:12;12.00;99.90
27741;DHT22;15134;48.768;9.184;2022-09-17T01:54:48;12.10;99.90
27741;DHT22;15134;48.768;9.184;2022-09-17T01:57:22;12.10;99.90
27741;DHT22;15134;48.768;9.184;2022-09-17T02:00:14;12.10;99.90
27741;DHT22;15134;48.768;9.184;2022-09-17T02:07:51;12.20;99.90
27741;DHT22;15134;48.768;9.184;2022-09-17T02:10:26;12.20;99.90
27741;DHT22;15134;48.768;9.184;2022-09-17T02:13:09;12.20;99.90
27741;DHT22;15134;48.768;9.184;2022-09-17T02:15:42;12.20;99.90
27741;DHT22;15134;48.768;9.184;2022-09-17T02:18:18;12.20;99.90
27741;DHT22;15134;48.768;9.184;2022-09-17T02:20:53;12.10;99.90
27741;DHT22;15134;48.768;9.184;2022-09-17T02:23:26;12.10;99.90
27741;DHT22;15134;48.768;9.184;2022-09-17T02:26:03;12.00;99.90
27741;DHT22;15134;48.768;9.184;2022-09-17T02:28:42;12.00;99.90
27741;DHT22;15134;48.768;9.184;2022-09-17T02:31:10;12.00;99.90
27741;DHT22;15134;48.768;9.184;2022-09-17T02:33:40;12.00;99.90
27741;DHT22;15134;48.768;9.184;2022-09-17T02:36:08;12.00;99.90
27741;DHT22;15134;48.768;9.184;2022-09-17T02:38:34;12.10;99.90
27741;DHT22;15134;48.768;9.184;2022-09-17T02:41:20;12.10;99.90
27741;DHT22;15134;48.768;9.184;2022-09-17T02:46:46;12.20;99.90
27741;DHT22;15134;48.768;9.184;2022-09-17T02:49:23;12.20;99.90
27741;DHT22;15134;48.768;9.184;2022-09-17T02:55:00;12.30;99.90
27741;DHT22;15134;48.768;9.184;2022-09-17T02:57:46;12.30;99.90
27741;DHT22;15134;48.768;9.184;2022-09-17T03:00:15;12.30;99.90
27741;DHT22;15134;48.768;9.184;2022-09-17T03:03:04;12.30;99.90
27741;DHT22;15134;48.768;9.184;2022-09-17T03:05:31;12.20;99.90
27741;DHT22;15134;48.768;9.184;2022-09-17T03:07:58;12.20;99.90
27741;DHT22;15134;48.768;9.184;2022-09-17T03:10:25;12.20;99.90
27741;DHT22;15134;48.768;9.184;2022-09-17T03:12:54;12.10;99.90
27741;DHT22;15134;48.768;9.184;2022-09-17T03:15:20;12.00;99.90
27741;DHT22;15134;48.768;9.184;2022-09-17T03:17:46;12.00;99.90
27741;DHT22;15134;48.768;9.184;2022-09-17T03:20:11;12.00;99.90
27741;DHT22;15134;48.768;9.184;2022-09-17T03:22:40;12.00;99.90
27741;DHT22;15134;48.768;9.184;2022-09-17T03:25:07;11.90;99.90
27741;DHT22;15134;48.768;9.184;2022-09-17T03:27:32;11.90;99.90
27741;DHT22;15134;48.768;9.184;2022-09-17T03:29:58;11.90;99.90
27741;DHT22;15134;48.768;9.184;2022-09-17T03:32:24;11.90;99.90
27741;DHT22;15134;48.768;9.184;2022-09-17T03:34:49;11.90;99.90
27741;DHT22;15134;48.768;9.184;2022-09-17T03:37:15;11.90;99.90
27741;DHT22;15134;48.768;9.184;2022-09-17T03:39:41;11.90;99.90
27741;DHT22;15134;48.768;9.184;2022-09-17T03:42:07;11.80;99.90
27741;DHT22;15134;48.768;9.184;2022-09-17T03:44:32;11.90;99.90
27741;DHT22;15134;48.768;9.184;2022-09-17T03:46:58;11.90;99.90
27741;DHT22;15134;48.768;9.184;2022-09-17T03:49:24;11.90;99.90
27741;DHT22;15134;48.768;9.184;2022-09-17T03:51:50;11.90;99.90
27741;DHT22;15134;48.768;9.184;2022-09-17T03:54:15;11.90;99.90
27741;DHT22;15134;48.768;9.184;2022-09-17T03:56:42;11.90;99.90
27741;DHT22;15134;48.768;9.184;2022-09-17T03:59:07;11.80;99.90
27741;DHT22;15134;48.768;9.184;2022-09-17T04:01:33;11.70;99.90
27741;DHT22;15134;48.768;9.184;2022-09-17T04:04:00;11.70;99.90
27741;DHT22;15134;48.768;9.184;2022-09-17T04:06:26;11.60;99.90
27741;DHT22;15134;48.768;9.184;2022-09-17T04:08:52;11.60;99.90
27741;DHT22;15134;48.768;9.184;2022-09-17T04:11:18;11.60;99.90
27741;DHT22;15134;48.768;9.184;2022-09-17T04:13:44;11.70;99.90
27741;DHT22;15134;48.768;9.184;2022-09-17T04:16:09;11.70;99.90
27741;DHT22;15134;48.768;9.184;2022-09-17T04:18:35;11.70;99.90
27741;DHT22;15134;48.768;9.184;2022-09-17T04:21:01;11.70;99.90
27741;DHT22;15134;48.768;9.184;2022-09-17T04:23:28;11.60;99.90
27741;DHT22;15134;48.768;9.184;2022-09-17T04:25:54;11.60;99.90
27741;DHT22;15134;48.768;9.184;2022-09-17T04:28:19;11.60;99.90
27741;DHT22;15134;48.768;9.184;2022-09-17T04:30:47;11.60;99.90
27741;DHT22;15134;48.768;9.184;2022-09-17T04:33:13;11.60;99.90
27741;DHT22;15134;48.768;9.184;2022-09-17T04:35:39;11.60;99.90
27741;DHT22;15134;48.768;9.184;2022-09-17T04:38:04;11.60;99.90
27741;DHT22;15134;48.768;9.184;2022-09-17T04:40:30;11.60;99.90
27741;DHT22;15134;48.768;9.184;2022-09-17T04:42:57;11.70;99.90
27741;DHT22;15134;48.768;9.184;2022-09-17T04:45:28;11.70;99.90
27741;DHT22;15134;48.768;9.184;2022-09-17T04:47:55;11.70;99.90
27741;DHT22;15134;48.768;9.184;2022-09-17T04:50:21;11.80;99.90
27741;DHT22;15134;48.768;9.184;2022-09-17T04:52:47;11.80;99.90
27741;DHT22;15134;48.768;9.184;2022-09-17T04:55:15;11.70;99.90
27741;DHT22;15134;48.768;9.184;2022-09-17T04:57:47;11.60;99.90
27741;DHT22;15134;48.768;9.184;2022-09-17T05:00:15;11.70;99.90
27741;DHT22;15134;48.768;9.184;2022-09-17T05:02:47;11.70;99.90
27741;DHT22;15134;48.768;9.184;2022-09-17T05:05:14;11.70;99.90
27741;DHT22;15134;48.768;9.184;2022-09-17T05:07:40;11.60;99.90
27741;DHT22;15134;48.768;9.184;2022-09-17T05:10:07;11.60;99.90
27741;DHT22;15134;48.768;9.184;2022-09-17T05:12:33;11.70;99.90
27741;DHT22;15134;48.768;9.184;2022-09-17T05:14:58;11.70;99.90
27741;DHT22;15134;48.768;9.184;2022-09-17T05:17:24;11.70;99.90
27741;DHT22;15134;48.768;9.184;2022-09-17T05:19:50;11.70;99.90
27741;DHT22;15134;48.768;9.184;2022-09-17T05:22:18;11.80;99.90
27741;DHT22;15134;48.768;9.184;2022-09-17T05:24:44;11.80;99.90
27741;DHT22;15134;48.768;9.184;2022-09-17T05:27:10;11.80;99.90
27741;DHT22;15134;48.768;9.184;2022-09-17T05:29:36;11.80;99.90
27741;DHT22;15134;48.768;9.184;2022-09-17T05:32:05;11.80;99.90
27741;DHT22;15134;48.768;9.184;2022-09-17T05:34:31;11.80;99.90
27741;DHT22;15134;48.768;9.184;2022-09-17T05:36:57;11.80;99.90
27741;DHT22;15134;48.768;9.184;2022-09-17T05:39:23;11.80;99.90
27741;DHT22;15134;48.768;9.184;2022-09-17T05:41:52;11.80;99.90
27741;DHT22;15134;48.768;9.184;2022-09-17T05:44:18;11.70;99.90
27741;DHT22;15134;48.768;9.184;2022-09-17T05:46:45;11.80;99.90
27741;DHT22;15134;48.768;9.184;2022-09-17T05:49:11;11.80;99.90
27741;DHT22;15134;48.768;9.184;2022-09-17T05:51:37;11.70;99.90
27741;DHT22;15134;48.768;9.184;2022-09-17T05:54:03;11.70;99.90
27741;DHT22;15134;48.768;9.184;2022-09-17T05:56:28;11.80;99.90
27741;DHT22;15134;48.768;9.184;2022-09-17T05:58:55;11.90;99.90
27741;DHT22;15134;48.768;9.184;2022-09-17T06:01:21;11.90;99.90
27741;DHT22;15134;48.768;9.184;2022-09-17T06:03:48;12.00;99.90
27741;DHT22;15134;48.768;9.184;2022-09-17T06:06:13;12.10;99.90
27741;DHT22;15134;48.768;9.184;2022-09-17T06:08:39;12.30;99.90
27741;DHT22;15134;48.768;9.184;2022-09-17T06:11:05;12.50;99.90
27741;DHT22;15134;48.768;9.184;2022-09-17T06:13:32;12.70;99.90
27741;DHT22;15134;48.768;9.184;2022-09-17T06:15:58;12.80;99.90
27741;DHT22;15134;48.768;9.184;2022-09-17T06:18:28;12.90;99.90
27741;DHT22;15134;48.768;9.184;2022-09-17T06:20:56;13.00;99.90
27741;DHT22;15134;48.768;9.184;2022-09-17T06:23:22;13.10;99.90
27741;DHT22;15134;48.768;9.184;2022-09-17T06:25:58;13.10;99.90
27741;DHT22;15134;48.768;9.184;2022-09-17T06:28:25;13.10;99.90
27741;DHT22;15134;48.768;9.184;2022-09-17T06:30:52;13.00;99.90
27741;DHT22;15134;48.768;9.184;2022-09-17T06:33:22;13.00;99.90
27741;DHT22;15134;48.768;9.184;2022-09-17T06:35:54;13.00;99.90
27741;DHT22;15134;48.768;9.184;2022-09-17T06:38:20;13.00;99.90
27741;DHT22;15134;48.768;9.184;2022-09-17T06:40:50;13.00;99.90
27741;DHT22;15134;48.768;9.184;2022-09-17T06:43:16;12.90;99.90
27741;DHT22;15134;48.768;9.184;2022-09-17T06:45:42;12.90;99.90
27741;DHT22;15134;48.768;9.184;2022-09-17T06:48:08;12.80;99.90
27741;DHT22;15134;48.768;9.184;2022-09-17T06:50:33;12.80;99.90
27741;DHT22;15134;48.768;9.184;2022-09-17T06:52:59;12.80;99.90
27741;DHT22;15134;48.768;9.184;2022-09-17T06:55:25;12.80;99.90
27741;DHT22;15134;48.768;9.184;2022-09-17T06:57:51;12.70;99.90
27741;DHT22;15134;48.768;9.184;2022-09-17T07:00:17;12.60;99.90
27741;DHT22;15134;48.768;9.184;2022-09-17T07:02:42;12.50;99.90
27741;DHT22;15134;48.768;9.184;2022-09-17T07:05:08;12.40;99.90
27741;DHT22;15134;48.768;9.184;2022-09-17T07:07:34;12.40;99.90
27741;DHT22;15134;48.768;9.184;2022-09-17T07:10:03;12.40;99.90
27741;DHT22;15134;48.768;9.184;2022-09-17T07:12:29;12.40;99.90
27741;DHT22;15134;48.768;9.184;2022-09-17T07:14:55;12.40;99.90
27741;DHT22;15134;48.768;9.184;2022-09-17T07:17:20;12.30;99.90
27741;DHT22;15134;48.768;9.184;2022-09-17T07:19:46;12.30;99.90
27741;DHT22;15134;48.768;9.184;2022-09-17T07:22:12;12.30;99.90
27741;DHT22;15134;48.768;9.184;2022-09-17T07:24:38;12.20;99.90
27741;DHT22;15134;48.768;9.184;2022-09-17T07:27:04;12.10;99.90
27741;DHT22;15134;48.768;9.184;2022-09-17T07:29:30;12.00;99.90
27741;DHT22;15134;48.768;9.184;2022-09-17T07:31:56;11.80;99.90
27741;DHT22;15134;48.768;9.184;2022-09-17T07:34:24;11.80;99.90
27741;DHT22;15134;48.768;9.184;2022-09-17T07:36:51;11.80;99.90
27741;DHT22;15134;48.768;9.184;2022-09-17T07:39:16;11.90;99.90
27741;DHT22;15134;48.768;9.184;2022-09-17T07:41:42;12.00;99.90
27741;DHT22;15134;48.768;9.184;2022-09-17T07:44:07;12.10;99.90
27741;DHT22;15134;48.768;9.184;2022-09-17T07:46:34;12.10;99.90
27741;DHT22;15134;48.768;9.184;2022-09-17T07:49:00;12.10;99.90
27741;DHT22;15134;48.768;9.184;2022-09-17T07:51:27;12.00;99.90
27741;DHT22;15134;48.768;9.184;2022-09-17T07:53:54;11.90;99.90
27741;DHT22;15134;48.768;9.184;2022-09-17T07:56:21;11.90;99.90
27741;DHT22;15134;48.768;9.184;2022-09-17T07:58:47;11.90;99.90
27741;DHT22;15134;48.768;9.184;2022-09-17T08:01:14;11.80;99.90
27741;DHT22;15134;48.768;9.184;2022-09-17T08:03:48;11.90;99.90
27741;DHT22;15134;48.768;9.184;2022-09-17T08:06:15;11.90;99.90
27741;DHT22;15134;48.768;9.184;2022-09-17T08:08:42;12.00;99.90
27741;DHT22;15134;48.768;9.184;2022-09-17T08:11:13;12.10;99.90
27741;DHT22;15134;48.768;9.184;2022-09-17T08:13:40;12.10;99.90
27741;DHT22;15134;48.768;9.184;2022-09-17T08:16:08;12.20;99.90
27741;DHT22;15134;48.768;9.184;2022-09-17T08:18:34;12.20;99.90
27741;DHT22;15134;48.768;9.184;2022-09-17T08:21:02;12.10;99.90
27741;DHT22;15134;48.768;9.184;2022-09-17T08:23:29;12.10;99.90
27741;DHT22;15134;48.768;9.184;2022-09-17T08:25:57;12.10;99.90
27741;DHT22;15134;48.768;9.184;2022-09-17T08:28:25;12.20;99.90
27741;DHT22;15134;48.768;9.184;2022-09-17T08:30:52;12.30;99.90
27741;DHT22;15134;48.768;9.184;2022-09-17T08:33:19;12.30;99.90
27741;DHT22;15134;48.768;9.184;2022-09-17T08:35:54;12.40;99.90
27741;DHT22;15134;48.768;9.184;2022-09-17T08:38:30;12.50;99.90
27741;DHT22;15134;48.768;9.184;2022-09-17T08:44:08;12.60;99.90
27741;DHT22;15134;48.768;9.184;2022-09-17T08:46:46;12.70;99.90
27741;DHT22;15134;48.768;9.184;2022-09-17T08:49:29;12.90;99.90
27741;DHT22;15134;48.768;9.184;2022-09-17T09:00:25;13.20;99.90
27741;DHT22;15134;48.768;9.184;2022-09-17T09:05:43;14.10;99.90
27741;DHT22;15134;48.768;9.184;2022-09-17T09:08:35;14.20;99.90
27741;DHT22;15134;48.768;9.184;2022-09-17T09:11:15;14.20;99.90
27741;DHT22;15134;48.768;9.184;2022-09-17T09:13:45;14.20;99.90
27741;DHT22;15134;48.768;9.184;2022-09-17T09:16:17;14.20;99.90
27741;DHT22;15134;48.768;9.184;2022-09-17T09:18:44;14.10;99.90
27741;DHT22;15134;48.768;9.184;2022-09-17T09:21:29;14.10;99.90
27741;DHT22;15134;48.768;9.184;2022-09-17T09:24:23;14.00;99.90
27741;DHT22;15134;48.768;9.184;2022-09-17T09:27:16;13.90;99.90
27741;DHT22;15134;48.768;9.184;2022-09-17T09:30:15;13.90;99.90
27741;DHT22;15134;48.768;9.184;2022-09-17T09:35:24;13.70;99.90
27741;DHT22;15134;48.768;9.184;2022-09-17T09:38:17;13.50;99.90
27741;DHT22;15134;48.768;9.184;2022-09-17T09:41:05;13.40;99.90
27741;DHT22;15134;48.768;9.184;2022-09-17T09:43:44;13.20;99.90
27741;DHT22;15134;48.768;9.184;2022-09-17T09:47:02;13.40;99.90
27741;DHT22;15134;48.768;9.184;2022-09-17T09:57:07;13.30;99.90
27741;DHT22;15134;48.768;9.184;2022-09-17T09:59:35;13.10;99.90
27741;DHT22;15134;48.768;9.184;2022-09-17T10:02:02;13.10;99.90
27741;DHT22;15134;48.768;9.184;2022-09-17T10:04:28;13.00;99.90
27741;DHT22;15134;48.768;9.184;2022-09-17T10:07:05;13.00;99.90
27741;DHT22;15134;48.768;9.184;2022-09-17T10:09:33;12.90;99.90
27741;DHT22;15134;48.768;9.184;2022-09-17T10:12:03;12.80;99.90
27741;DHT22;15134;48.768;9.184;2022-09-17T10:14:31;13.10;99.90
27741;DHT22;15134;48.768;9.184;2022-09-17T10:19:38;13.90;99.90
27741;DHT22;15134;48.768;9.184;2022-09-17T10:24:55;14.50;99.90
27741;DHT22;15134;48.768;9.184;2022-09-17T10:27:23;14.80;99.90
27741;DHT22;15134;48.768;9.184;2022-09-17T10:32:35;15.10;99.90
27741;DHT22;15134;48.768;9.184;2022-09-17T10:35:23;14.80;99.90
27741;DHT22;15134;48.768;9.184;2022-09-17T10:37:51;14.90;99.90
27741;DHT22;15134;48.768;9.184;2022-09-17T10:42:47;15.10;99.90
27741;DHT22;15134;48.768;9.184;2022-09-17T10:45:23;15.30;99.90
27741;DHT22;15134;48.768;9.184;2022-09-17T10:47:50;15.40;99.90
27741;DHT22;15134;48.768;9.184;2022-09-17T10:50:18;15.50;99.90
27741;DHT22;15134;48.768;9.184;2022-09-17T10:52:50;15.80;99.90
27741;DHT22;15134;48.768;9.184;2022-09-17T11:17:43;16.20;99.90
27741;DHT22;15134;48.768;9.184;2022-09-17T11:28:31;16.40;99.90
27741;DHT22;15134;48.768;9.184;2022-09-17T11:36:29;15.90;99.90
27741;DHT22;15134;48.768;9.184;2022-09-17T11:39:02;16.10;99.90
27741;DHT22;15134;48.768;9.184;2022-09-17T11:41:44;16.20;99.90
27741;DHT22;15134;48.768;9.184;2022-09-17T11:44:27;16.40;99.90
27741;DHT22;15134;48.768;9.184;2022-09-17T11:47:04;16.60;99.90
27741;DHT22;15134;48.768;9.184;2022-09-17T11:49:37;16.70;99.90
27741;DHT22;15134;48.768;9.184;2022-09-17T11:52:30;16.80;99.90
27741;DHT22;15134;48.768;9.184;2022-09-17T11:57:38;16.90;99.90
27741;DHT22;15134;48.768;9.184;2022-09-17T12:00:16;16.80;99.90
27741;DHT22;15134;48.768;9.184;2022-09-17T12:03:03;16.80;99.90
27741;DHT22;15134;48.768;9.184;2022-09-17T12:05:44;16.80;99.90
27741;DHT22;15134;48.768;9.184;2022-09-17T12:11:26;16.50;99.90
27741;DHT22;15134;48.768;9.184;2022-09-17T12:14:00;16.40;99.90
27741;DHT22;15134;48.768;9.184;2022-09-17T12:16:37;16.10;99.90
27741;DHT22;15134;48.768;9.184;2022-09-17T12:19:19;16.10;99.90
27741;DHT22;15134;48.768;9.184;2022-09-17T12:24:30;15.50;99.90
27741;DHT22;15134;48.768;9.184;2022-09-17T12:44:00;14.70;99.90
27741;DHT22;15134;48.768;9.184;2022-09-17T12:51:58;14.60;99.90
27741;DHT22;15134;48.768;9.184;2022-09-17T13:00:14;14.40;99.90
27741;DHT22;15134;48.768;9.184;2022-09-17T13:03:14;14.50;99.90
27741;DHT22;15134;48.768;9.184;2022-09-17T13:05:52;14.50;99.90
27741;DHT22;15134;48.768;9.184;2022-09-17T13:08:51;14.60;99.90
27741;DHT22;15134;48.768;9.184;2022-09-17T13:17:12;13.80;99.90
27741;DHT22;15134;48.768;9.184;2022-09-17T13:22:51;13.80;99.90
27741;DHT22;15134;48.768;9.184;2022-09-17T13:25:20;13.80;99.90
27741;DHT22;15134;48.768;9.184;2022-09-17T13:27:50;13.80;99.90
27741;DHT22;15134;48.768;9.184;2022-09-17T13:30:57;13.80;99.90
27741;DHT22;15134;48.768;9.184;2022-09-17T13:39:49;13.70;99.90
27741;DHT22;15134;48.768;9.184;2022-09-17T13:42:25;13.70;99.90
27741;DHT22;15134;48.768;9.184;2022-09-17T13:45:08;13.60;99.90
27741;DHT22;15134;48.768;9.184;2022-09-17T13:47:52;13.70;99.90
27741;DHT22;15134;48.768;9.184;2022-09-17T13:50:27;13.70;99.90
27741;DHT22;15134;48.768;9.184;2022-09-17T13:52:54;13.70;99.90
27741;DHT22;15134;48.768;9.184;2022-09-17T13:55:38;13.70;99.90
27741;DHT22;15134;48.768;9.184;2022-09-17T14:01:00;13.80;99.90
27741;DHT22;15134;48.768;9.184;2022-09-17T14:19:42;14.30;99.90
27741;DHT22;15134;48.768;9.184;2022-09-17T14:22:18;14.40;99.90
27741;DHT22;15134;48.768;9.184;2022-09-17T14:24:49;14.50;99.90
27741;DHT22;15134;48.768;9.184;2022-09-17T14:30:30;14.50;99.90
27741;DHT22;15134;48.768;9.184;2022-09-17T14:35:45;14.40;99.90
27741;DHT22;15134;48.768;9.184;2022-09-17T14:41:06;14.30;99.90
27741;DHT22;15134;48.768;9.184;2022-09-17T14:43:55;14.30;99.90
27741;DHT22;15134;48.768;9.184;2022-09-17T14:46:31;14.30;99.90
27741;DHT22;15134;48.768;9.184;2022-09-17T14:49:23;14.40;99.90
27741;DHT22;15134;48.768;9.184;2022-09-17T14:51:50;14.60;99.90
27741;DHT22;15134;48.768;9.184;2022-09-17T14:54:19;14.80;99.90
27741;DHT22;15134;48.768;9.184;2022-09-17T14:56:51;14.80;99.90
27741;DHT22;15134;48.768;9.184;2022-09-17T14:59:25;14.80;99.90
27741;DHT22;15134;48.768;9.184;2022-09-17T15:01:51;14.80;99.90
27741;DHT22;15134;48.768;9.184;2022-09-17T15:04:21;14.80;99.90
27741;DHT22;15134;48.768;9.184;2022-09-17T15:06:47;14.80;99.90
27741;DHT22;15134;48.768;9.184;2022-09-17T15:09:24;14.80;99.90
27741;DHT22;15134;48.768;9.184;2022-09-17T15:11:55;14.70;99.90
27741;DHT22;15134;48.768;9.184;2022-09-17T15:14:27;14.70;99.90
27741;DHT22;15134;48.768;9.184;2022-09-17T15:16:55;14.70;99.90
27741;DHT22;15134;48.768;9.184;2022-09-17T15:25:03;14.40;99.90
27741;DHT22;15134;48.768;9.184;2022-09-17T15:27:37;14.40;99.90
27741;DHT22;15134;48.768;9.184;2022-09-17T15:32:59;14.30;99.90
27741;DHT22;15134;48.768;9.184;2022-09-17T15:35:30;14.20;99.90
27741;DHT22;15134;48.768;9.184;2022-09-17T15:40:41;14.20;99.90
27741;DHT22;15134;48.768;9.184;2022-09-17T15:43:27;14.20;99.90
27741;DHT22;15134;48.768;9.184;2022-09-17T15:45:54;14.10;99.90
27741;DHT22;15134;48.768;9.184;2022-09-17T15:50:56;14.30;99.90
27741;DHT22;15134;48.768;9.184;2022-09-17T15:53:23;14.10;99.90
27741;DHT22;15134;48.768;9.184;2022-09-17T16:08:47;14.10;99.90
27741;DHT22;15134;48.768;9.184;2022-09-17T16:11:32;13.90;99.90
27741;DHT22;15134;48.768;9.184;2022-09-17T16:13:59;13.80;99.90
27741;DHT22;15134;48.768;9.184;2022-09-17T16:16:34;13.70;99.90
27741;DHT22;15134;48.768;9.184;2022-09-17T16:19:00;13.60;99.90
27741;DHT22;15134;48.768;9.184;2022-09-17T16:21:25;13.60;99.90
27741;DHT22;15134;48.768;9.184;2022-09-17T16:23:52;13.60;99.90
27741;DHT22;15134;48.768;9.184;2022-09-17T16:26:19;13.70;99.90
27741;DHT22;15134;48.768;9.184;2022-09-17T16:28:48;13.70;99.90
27741;DHT22;15134;48.768;9.184;2022-09-17T16:31:14;13.80;99.90
27741;DHT22;15134;48.768;9.184;2022-09-17T16:33:40;13.90;99.90
27741;DHT22;15134;48.768;9.184;2022-09-17T16:36:06;14.00;99.90
27741;DHT22;15134;48.768;9.184;2022-09-17T16:38:32;14.10;99.90
27741;DHT22;15134;48.768;9.184;2022-09-17T16:40:58;14.10;99.90
27741;DHT22;15134;48.768;9.184;2022-09-17T16:43:24;14.10;99.90
27741;DHT22;15134;48.768;9.184;2022-09-17T16:48:24;14.10;99.90
27741;DHT22;15134;48.768;9.184;2022-09-17T16:50:50;14.00;99.90
27741;DHT22;15134;48.768;9.184;2022-09-17T16:53:15;14.00;99.90
27741;DHT22;15134;48.768;9.184;2022-09-17T16:55:41;13.90;99.90
27741;DHT22;15134;48.768;9.184;2022-09-17T16:58:07;13.90;99.90
27741;DHT22;15134;48.768;9.184;2022-09-17T17:00:32;13.90;99.90
27741;DHT22;15134;48.768;9.184;2022-09-17T17:02:58;13.80;99.90
27741;DHT22;15134;48.768;9.184;2022-09-17T17:05:25;13.80;99.90
27741;DHT22;15134;48.768;9.184;2022-09-17T17:07:51;13.70;99.90
27741;DHT22;15134;48.768;9.184;2022-09-17T17:10:21;13.80;99.90
27741;DHT22;15134;48.768;9.184;2022-09-17T17:12:47;13.80;99.90
27741;DHT22;15134;48.768;9.184;2022-09-17T17:15:13;13.70;99.90
27741;DHT22;15134;48.768;9.184;2022-09-17T17:17:39;13.70;99.90
27741;DHT22;15134;48.768;9.184;2022-09-17T17:20:06;13.70;99.90
27741;DHT22;15134;48.768;9.184;2022-09-17T17:22:34;13.50;99.90
27741;DHT22;15134;48.768;9.184;2022-09-17T17:25:02;13.40;99.90
27741;DHT22;15134;48.768;9.184;2022-09-17T17:27:27;13.40;99.90
27741;DHT22;15134;48.768;9.184;2022-09-17T17:29:53;13.30;99.90
27741;DHT22;15134;48.768;9.184;2022-09-17T17:32:19;13.20;99.90
27741;DHT22;15134;48.768;9.184;2022-09-17T17:34:45;13.20;99.90
27741;DHT22;15134;48.768;9.184;2022-09-17T17:37:11;13.20;99.90
27741;DHT22;15134;48.768;9.184;2022-09-17T17:39:39;13.20;99.90
27741;DHT22;15134;48.768;9.184;2022-09-17T17:42:05;13.10;99.90
27741;DHT22;15134;48.768;9.184;2022-09-17T17:44:30;13.10;99.90
27741;DHT22;15134;48.768;9.184;2022-09-17T17:46:56;13.10;99.90
27741;DHT22;15134;48.768;9.184;2022-09-17T17:49:22;13.10;99.90
27741;DHT22;15134;48.768;9.184;2022-09-17T17:51:47;13.00;99.90
27741;DHT22;15134;48.768;9.184;2022-09-17T17:54:13;12.90;99.90
27741;DHT22;15134;48.768;9.184;2022-09-17T17:56:39;12.90;99.90
27741;DHT22;15134;48.768;9.184;2022-09-17T17:59:05;12.90;99.90
27741;DHT22;15134;48.768;9.184;2022-09-17T18:01:30;12.80;99.90
27741;DHT22;15134;48.768;9.184;2022-09-17T18:04:01;12.70;99.90
27741;DHT22;15134;48.768;9.184;2022-09-17T18:06:28;12.70;99.90
27741;DHT22;15134;48.768;9.184;2022-09-17T18:08:54;12.70;99.90
27741;DHT22;15134;48.768;9.184;2022-09-17T18:11:20;12.70;99.90
27741;DHT22;15134;48.768;9.184;2022-09-17T18:13:53;12.70;99.90
27741;DHT22;15134;48.768;9.184;2022-09-17T18:16:20;12.60;99.90
27741;DHT22;15134;48.768;9.184;2022-09-17T18:18:46;12.50;99.90
27741;DHT22;15134;48.768;9.184;2022-09-17T18:21:14;12.50;99.90
27741;DHT22;15134;48.768;9.184;2022-09-17T18:23:41;12.50;99.90
27741;DHT22;15134;48.768;9.184;2022-09-17T18:26:11;12.50;99.90
27741;DHT22;15134;48.768;9.184;2022-09-17T18:28:37;12.50;99.90
27741;DHT22;15134;48.768;9.184;2022-09-17T18:31:05;12.50;99.90
27741;DHT22;15134;48.768;9.184;2022-09-17T18:33:31;12.50;99.90
27741;DHT22;15134;48.768;9.184;2022-09-17T18:36:00;12.40;99.90
27741;DHT22;15134;48.768;9.184;2022-09-17T18:38:27;12.40;99.90
27741;DHT22;15134;48.768;9.184;2022-09-17T18:40:53;12.40;99.90
27741;DHT22;15134;48.768;9.184;2022-09-17T18:43:18;12.40;99.90
27741;DHT22;15134;48.768;9.184;2022-09-17T18:45:57;12.50;99.90
27741;DHT22;15134;48.768;9.184;2022-09-17T18:48:23;12.50;99.90
27741;DHT22;15134;48.768;9.184;2022-09-17T18:50:59;12.30;99.90
27741;DHT22;15134;48.768;9.184;2022-09-17T18:53:26;12.30;99.90
27741;DHT22;15134;48.768;9.184;2022-09-17T18:55:53;12.30;99.90
27741;DHT22;15134;48.768;9.184;2022-09-17T18:58:21;12.30;99.90
27741;DHT22;15134;48.768;9.184;2022-09-17T19:00:46;12.30;99.90
27741;DHT22;15134;48.768;9.184;2022-09-17T19:03:12;12.30;99.90
27741;DHT22;15134;48.768;9.184;2022-09-17T19:05:38;12.20;99.90
27741;DHT22;15134;48.768;9.184;2022-09-17T19:08:04;12.20;99.90
27741;DHT22;15134;48.768;9.184;2022-09-17T19:10:30;12.20;99.90
27741;DHT22;15134;48.768;9.184;2022-09-17T19:12:57;12.20;99.90
27741;DHT22;15134;48.768;9.184;2022-09-17T19:15:22;12.10;99.90
27741;DHT22;15134;48.768;9.184;2022-09-17T19:17:48;12.10;99.90
27741;DHT22;15134;48.768;9.184;2022-09-17T19:20:14;11.90;99.90
27741;DHT22;15134;48.768;9.184;2022-09-17T19:22:43;11.40;99.90
27741;DHT22;15134;48.768;9.184;2022-09-17T19:25:09;11.20;99.90
27741;DHT22;15134;48.768;9.184;2022-09-17T19:27:35;11.20;99.90
27741;DHT22;15134;48.768;9.184;2022-09-17T19:30:00;11.20;99.90
27741;DHT22;15134;48.768;9.184;2022-09-17T19:32:26;11.20;99.90